createdAt,value
2023-04-13T00:00:35.550Z,85.10
2023-04-13T00:03:04.346Z,85.29
2023-04-13T00:05:31.452Z,85.09
2023-04-13T00:08:03.480Z,85.24
2023-04-13T00:10:36.818Z,85.33
2023-04-13T00:13:05.311Z,85.25
2023-04-13T00:15:34.754Z,85.90
2023-04-13T00:18:01.703Z,86.04
2023-04-13T00:20:29.001Z,85.73
2023-04-13T00:22:56.177Z,85.64
2023-04-13T00:25:22.833Z,85.29
2023-04-13T00:27:50.360Z,85.72
2023-04-13T00:30:18.024Z,85.74
2023-04-13T00:32:45.497Z,85.81
2023-04-13T00:35:15.672Z,86.05
2023-04-13T00:37:47.155Z,85.63
2023-04-13T00:40:16.557Z,85.66
2023-04-13T00:42:46.764Z,85.74
2023-04-13T00:45:13.743Z,85.88
2023-04-13T00:47:43.459Z,85.83
2023-04-13T00:50:10.264Z,85.39
2023-04-13T00:52:40.164Z,85.38
2023-04-13T00:55:07.797Z,85.61
2023-04-13T00:57:35.220Z,85.90
2023-04-13T01:00:07.876Z,86.03
2023-04-13T01:02:34.477Z,85.87
2023-04-13T01:05:03.157Z,85.63
2023-04-13T01:07:47.246Z,85.35
2023-04-13T01:10:43.541Z,85.90
2023-04-13T01:13:20.687Z,85.78
2023-04-13T01:16:04.278Z,85.49
2023-04-13T01:18:33.337Z,85.65
2023-04-13T01:21:00.203Z,85.64
2023-04-13T01:23:56.725Z,85.69
2023-04-13T01:26:23.961Z,85.66
2023-04-13T01:28:51.400Z,85.74
2023-04-13T01:31:18.047Z,85.55
2023-04-13T01:33:46.863Z,85.12
2023-04-13T01:36:14.494Z,85.24
2023-04-13T01:38:41.141Z,85.39
2023-04-13T01:41:08.699Z,85.70
2023-04-13T01:43:35.830Z,85.63
2023-04-13T01:46:10.174Z,85.52
2023-04-13T01:48:48.409Z,85.58
2023-04-13T01:51:24.507Z,85.68
2023-04-13T01:54:12.898Z,85.34
2023-04-13T01:56:40.096Z,85.35
2023-04-13T01:59:06.662Z,85.58
2023-04-13T02:01:33.197Z,85.56
2023-04-13T02:04:00.673Z,85.76
2023-04-13T02:06:27.521Z,85.34
2023-04-13T02:08:54.429Z,85.47
2023-04-13T02:11:22.073Z,85.41
2023-04-13T02:13:48.610Z,85.54
2023-04-13T02:16:15.821Z,85.54
2023-04-13T02:18:42.414Z,85.39
2023-04-13T02:21:09.669Z,85.30
2023-04-13T02:23:37.102Z,85.39
2023-04-13T02:26:06.809Z,85.34
2023-04-13T02:28:33.408Z,85.10
2023-04-13T02:31:00.185Z,85.44
2023-04-13T02:33:31.645Z,85.39
2023-04-13T02:35:58.986Z,84.62
2023-04-13T02:38:26.658Z,84.00
2023-04-13T02:40:57.255Z,83.60
2023-04-13T02:43:23.788Z,83.82
2023-04-13T02:45:50.292Z,84.47
2023-04-13T02:48:16.861Z,84.30
2023-04-13T02:50:43.300Z,84.97
2023-04-13T02:53:09.785Z,84.64
2023-04-13T02:55:36.629Z,84.83
2023-04-13T02:58:04.584Z,84.85
2023-04-13T03:00:32.697Z,85.56
2023-04-13T03:02:59.454Z,85.13
2023-04-13T03:05:26.731Z,85.56
2023-04-13T03:07:53.232Z,85.62
2023-04-13T03:10:19.848Z,85.02
2023-04-13T03:12:46.318Z,84.91
2023-04-13T03:15:13.090Z,84.88
2023-04-13T03:17:41.501Z,85.21
2023-04-13T03:20:16.929Z,85.27
2023-04-13T03:22:45.381Z,85.14
2023-04-13T03:25:12.546Z,84.42
2023-04-13T03:27:39.149Z,84.74
2023-04-13T03:30:06.406Z,84.73
2023-04-13T03:32:32.899Z,84.73
2023-04-13T03:34:59.425Z,84.73
2023-04-13T03:37:30.212Z,85.16
2023-04-13T03:39:57.927Z,85.26
2023-04-13T03:42:24.404Z,84.40
2023-04-13T03:44:51.166Z,84.67
2023-04-13T03:47:17.816Z,85.18
2023-04-13T03:49:44.295Z,85.55
2023-04-13T03:52:10.772Z,85.50
2023-04-13T03:54:37.295Z,86.01
2023-04-13T03:57:04.877Z,85.29
2023-04-13T03:59:31.568Z,85.54
2023-04-13T04:01:58.455Z,85.24
2023-04-13T04:04:25.361Z,85.30
2023-04-13T04:06:52.101Z,84.86
2023-04-13T04:09:18.637Z,84.79
2023-04-13T04:11:45.719Z,85.49
2023-04-13T04:14:12.203Z,84.68
2023-04-13T04:16:38.762Z,84.79
2023-04-13T04:19:05.282Z,85.08
2023-04-13T04:21:36.078Z,85.09
2023-04-13T04:24:06.354Z,84.77
2023-04-13T04:26:33.298Z,84.75
2023-04-13T04:29:05.039Z,84.20
2023-04-13T04:31:36.675Z,83.73
2023-04-13T04:34:05.112Z,83.82
2023-04-13T04:36:31.614Z,84.09
2023-04-13T04:39:03.182Z,84.19
2023-04-13T04:41:31.321Z,84.08
2023-04-13T04:44:03.561Z,84.04
2023-04-13T04:46:30.132Z,84.22
2023-04-13T04:49:00.853Z,84.10
2023-04-13T04:51:28.187Z,83.80
2023-04-13T04:53:54.843Z,83.91
2023-04-13T04:56:21.756Z,83.31
2023-04-13T04:58:48.610Z,83.25
2023-04-13T05:01:15.260Z,81.98
2023-04-13T05:03:42.218Z,81.52
2023-04-13T05:06:09.424Z,81.63
2023-04-13T05:08:36.020Z,81.28
2023-04-13T05:11:05.969Z,81.18
2023-04-13T05:13:32.687Z,80.01
2023-04-13T05:15:59.355Z,79.70
2023-04-13T05:18:26.156Z,78.29
2023-04-13T05:20:52.935Z,79.42
2023-04-13T05:23:19.588Z,78.67
2023-04-13T05:25:46.237Z,77.64
2023-04-13T05:28:13.146Z,77.94
2023-04-13T05:30:39.724Z,78.02
2023-04-13T05:33:06.674Z,77.19
2023-04-13T05:35:33.708Z,77.06
2023-04-13T05:38:00.786Z,76.84
2023-04-13T05:40:28.987Z,75.25
2023-04-13T05:42:56.393Z,76.69
2023-04-13T05:45:23.026Z,75.35
2023-04-13T05:47:50.322Z,73.75
2023-04-13T05:50:17.212Z,73.31
2023-04-13T05:52:43.663Z,73.69
2023-04-13T05:55:11.753Z,73.18
2023-04-13T05:57:38.412Z,73.60
2023-04-13T06:00:08.038Z,72.89
2023-04-13T06:02:37.151Z,72.65
2023-04-13T06:05:05.131Z,72.13
2023-04-13T06:07:31.795Z,71.90
2023-04-13T06:10:00.767Z,71.25
2023-04-13T06:12:27.805Z,70.59
2023-04-13T06:14:54.499Z,69.96
2023-04-13T06:17:21.286Z,69.64
2023-04-13T06:19:48.507Z,68.93
2023-04-13T06:22:14.980Z,68.63
2023-04-13T06:24:41.835Z,67.36
2023-04-13T06:27:08.583Z,66.25
2023-04-13T06:29:35.972Z,65.16
2023-04-13T06:32:03.353Z,64.17
2023-04-13T06:34:30.743Z,63.91
2023-04-13T06:36:57.630Z,64.16
2023-04-13T06:39:25.545Z,63.39
2023-04-13T06:41:54.053Z,62.08
2023-04-13T06:44:20.864Z,61.96
2023-04-13T06:46:47.746Z,62.02
2023-04-13T06:49:14.545Z,60.02
2023-04-13T06:51:41.032Z,58.09
2023-04-13T06:54:07.648Z,57.62
2023-04-13T06:56:34.319Z,51.67
2023-04-13T06:59:03.432Z,45.65
2023-04-13T07:01:30.524Z,42.78
2023-04-13T07:03:57.478Z,39.23
2023-04-13T07:06:24.342Z,35.53
2023-04-13T07:08:50.988Z,32.73
2023-04-13T07:11:17.696Z,30.71
2023-04-13T07:13:44.343Z,30.26
2023-04-13T07:16:12.441Z,30.76
2023-04-13T07:18:39.041Z,29.33
2023-04-13T07:21:06.149Z,27.69
2023-04-13T07:23:33.794Z,27.80
2023-04-13T07:26:01.483Z,26.70
2023-04-13T07:28:28.400Z,26.29
2023-04-13T07:30:55.110Z,24.43
2023-04-13T07:33:21.841Z,24.27
2023-04-13T07:35:50.414Z,27.09
2023-04-13T07:38:17.150Z,28.35
2023-04-13T07:40:44.003Z,27.71
2023-04-13T07:43:11.060Z,24.86
2023-04-13T07:45:37.761Z,26.87
2023-04-13T07:48:05.931Z,24.42
2023-04-13T07:50:32.952Z,24.24
2023-04-13T07:52:59.666Z,31.68
2023-04-13T07:55:26.940Z,30.36
2023-04-13T07:57:53.542Z,26.31
2023-04-13T08:00:23.046Z,27.68
2023-04-13T08:02:50.413Z,27.90
2023-04-13T08:05:17.930Z,27.67
2023-04-13T08:07:46.996Z,29.50
2023-04-13T08:10:13.551Z,30.30
2023-04-13T08:12:40.154Z,31.14
2023-04-13T08:15:07.688Z,34.52
2023-04-13T08:17:36.032Z,35.19
2023-04-13T08:20:06.169Z,36.80
2023-04-13T08:22:33.073Z,38.80
2023-04-13T08:24:59.763Z,40.13
2023-04-13T08:27:26.452Z,39.59
2023-04-13T08:29:56.995Z,38.60
2023-04-13T08:32:23.743Z,37.00
2023-04-13T08:34:50.538Z,38.74
2023-04-13T08:37:17.405Z,37.76
2023-04-13T08:39:44.037Z,37.66
2023-04-13T08:42:10.695Z,38.31
2023-04-13T08:44:40.238Z,37.76
2023-04-13T08:47:07.519Z,38.65
2023-04-13T08:49:34.798Z,38.48
2023-04-13T08:52:05.563Z,39.13
2023-04-13T08:54:33.070Z,39.47
2023-04-13T08:56:59.746Z,40.17
2023-04-13T08:59:28.433Z,40.87
2023-04-13T09:01:56.157Z,42.09
2023-04-13T09:04:25.408Z,40.48
2023-04-13T09:06:52.818Z,39.60
2023-04-13T09:09:20.708Z,41.56
2023-04-13T09:11:49.932Z,41.21
2023-04-13T09:14:22.221Z,39.54
2023-04-13T09:16:50.076Z,39.33
2023-04-13T09:19:17.952Z,39.25
2023-04-13T09:21:45.466Z,41.38
2023-04-13T09:24:12.904Z,41.48
2023-04-13T09:26:43.857Z,42.34
2023-04-13T09:29:14.287Z,38.96
2023-04-13T09:31:43.546Z,39.77
2023-04-13T09:34:12.139Z,40.79
2023-04-13T09:36:49.584Z,41.22
2023-04-13T09:39:28.566Z,40.51
2023-04-13T09:41:56.105Z,41.45
2023-04-13T09:44:34.681Z,41.04
2023-04-13T09:47:05.876Z,44.25
2023-04-13T09:49:42.736Z,41.81
2023-04-13T09:52:23.711Z,42.42
2023-04-13T09:54:59.888Z,42.93
2023-04-13T09:57:30.883Z,40.75
2023-04-13T10:00:01.509Z,40.31
2023-04-13T10:02:28.658Z,40.79
2023-04-13T10:04:56.167Z,42.42
2023-04-13T10:07:26.925Z,40.55
2023-04-13T10:09:54.135Z,39.26
2023-04-13T10:12:21.074Z,38.64
2023-04-13T10:14:48.907Z,39.33
2023-04-13T10:17:42.681Z,38.77
2023-04-13T10:20:13.792Z,39.34
2023-04-13T10:22:43.434Z,39.08
2023-04-13T10:25:25.690Z,40.33
2023-04-13T10:28:00.160Z,39.41
2023-04-13T10:30:27.791Z,37.97
2023-04-13T10:33:06.412Z,37.80
2023-04-13T10:35:37.365Z,40.50
2023-04-13T10:38:05.106Z,40.94
2023-04-13T10:40:52.260Z,39.84
2023-04-13T10:43:29.233Z,36.53
2023-04-13T10:46:09.569Z,37.01
2023-04-13T10:48:36.592Z,35.94
2023-04-13T10:51:04.509Z,35.67
2023-04-13T10:53:32.874Z,35.21
2023-04-13T10:56:00.289Z,36.83
2023-04-13T10:58:29.955Z,36.85
2023-04-13T11:00:58.739Z,36.77
2023-04-13T11:03:29.036Z,38.06
2023-04-13T11:05:58.237Z,37.62
2023-04-13T11:08:25.281Z,37.18
2023-04-13T11:10:53.039Z,37.28
2023-04-13T11:13:19.895Z,36.27
2023-04-13T11:15:47.331Z,36.60
2023-04-13T11:18:13.880Z,36.21
2023-04-13T11:20:41.873Z,36.56
2023-04-13T11:23:19.023Z,37.35
2023-04-13T11:25:59.974Z,36.96
2023-04-13T11:28:40.146Z,36.02
2023-04-13T11:31:07.653Z,35.21
2023-04-13T11:33:37.222Z,36.08
2023-04-13T11:36:06.515Z,35.40
2023-04-13T11:38:33.191Z,33.93
2023-04-13T11:41:15.900Z,33.34
2023-04-13T11:43:46.748Z,33.61
2023-04-13T11:46:16.201Z,33.69
2023-04-13T11:48:43.478Z,34.12
2023-04-13T11:51:11.568Z,33.85
2023-04-13T11:53:39.455Z,34.53
2023-04-13T11:56:07.066Z,35.67
2023-04-13T11:58:33.818Z,35.65
2023-04-13T12:01:12.784Z,35.32
2023-04-13T12:03:56.743Z,34.57
2023-04-13T12:06:29.075Z,34.65
2023-04-13T12:09:10.086Z,35.54
2023-04-13T12:11:42.739Z,36.32
2023-04-13T12:14:49.755Z,37.01
2023-04-13T12:19:46.730Z,35.08
2023-04-13T12:22:14.949Z,34.63
2023-04-13T12:24:42.924Z,33.88
2023-04-13T12:27:18.254Z,33.28
2023-04-13T12:29:46.045Z,33.22
2023-04-13T12:32:19.732Z,33.52
2023-04-13T12:34:47.437Z,31.26
2023-04-13T12:37:14.058Z,32.37
2023-04-13T12:39:42.460Z,31.99
2023-04-13T12:42:10.004Z,31.95
2023-04-13T12:44:36.991Z,31.50
2023-04-13T12:47:06.733Z,32.43
2023-04-13T12:49:33.764Z,31.36
2023-04-13T12:52:00.983Z,28.93
2023-04-13T12:54:28.791Z,27.87
2023-04-13T12:56:57.093Z,28.41
2023-04-13T12:59:24.230Z,29.69
2023-04-13T13:01:51.352Z,28.63
2023-04-13T13:04:17.984Z,28.13
2023-04-13T13:06:44.621Z,29.22
2023-04-13T13:09:11.324Z,29.17
2023-04-13T13:11:37.972Z,30.30
2023-04-13T13:14:05.072Z,30.00
2023-04-13T13:16:32.673Z,29.98
2023-04-13T13:18:59.583Z,31.18
2023-04-13T13:21:26.589Z,31.04
2023-04-13T13:23:53.435Z,29.92
2023-04-13T13:26:24.546Z,29.63
2023-04-13T13:28:54.043Z,29.77
2023-04-13T13:31:20.896Z,29.94
2023-04-13T13:33:47.568Z,30.34
2023-04-13T13:36:15.079Z,30.96
2023-04-13T13:38:43.186Z,30.35
2023-04-13T13:41:09.995Z,30.64
2023-04-13T13:43:37.831Z,31.05
2023-04-13T13:46:08.593Z,30.88
2023-04-13T13:48:35.466Z,30.96
2023-04-13T13:51:04.464Z,31.35
2023-04-13T13:53:32.428Z,30.04
2023-04-13T13:55:59.122Z,29.22
2023-04-13T13:58:25.683Z,29.53
2023-04-13T14:00:52.326Z,28.89
2023-04-13T14:03:19.091Z,29.58
2023-04-13T14:05:46.068Z,29.39
2023-04-13T14:08:13.172Z,28.85
2023-04-13T14:10:40.204Z,28.73
2023-04-13T14:13:07.326Z,29.87
2023-04-13T14:15:33.900Z,29.33
2023-04-13T14:18:09.198Z,29.84
2023-04-13T14:20:39.184Z,30.14
2023-04-13T14:23:06.476Z,29.26
2023-04-13T14:25:33.089Z,28.92
2023-04-13T14:28:00.005Z,28.63
2023-04-13T14:30:28.119Z,26.64
2023-04-13T14:32:55.583Z,26.75
2023-04-13T14:35:22.551Z,26.68
2023-04-13T14:37:49.599Z,26.02
2023-04-13T14:40:17.067Z,25.58
2023-04-13T14:42:44.444Z,25.52
2023-04-13T14:45:12.407Z,25.48
2023-04-13T14:47:40.127Z,26.27
2023-04-13T14:50:08.592Z,26.19
2023-04-13T14:52:35.592Z,26.44
2023-04-13T14:55:03.651Z,26.37
2023-04-13T14:57:31.179Z,26.26
2023-04-13T14:59:57.928Z,25.82
2023-04-13T15:02:27.440Z,25.84
2023-04-13T15:04:54.737Z,26.61
2023-04-13T15:07:21.962Z,25.87
2023-04-13T15:09:49.014Z,26.03
2023-04-13T15:12:15.759Z,25.82
2023-04-13T15:14:46.610Z,26.09
2023-04-13T15:17:13.493Z,26.58
2023-04-13T15:19:40.284Z,26.88
2023-04-13T15:22:07.291Z,27.45
2023-04-13T15:24:33.882Z,27.05
2023-04-13T15:27:00.791Z,26.67
2023-04-13T15:29:27.778Z,26.59
2023-04-13T15:31:54.640Z,26.12
2023-04-13T15:34:21.342Z,25.80
2023-04-13T15:36:48.110Z,26.63
2023-04-13T15:39:14.821Z,26.94
2023-04-13T15:41:41.423Z,26.96
2023-04-13T15:44:08.238Z,27.02
2023-04-13T15:46:35.021Z,26.91
2023-04-13T15:49:02.069Z,26.51
2023-04-13T15:51:29.482Z,26.73
2023-04-13T15:53:56.190Z,27.27
2023-04-13T15:56:23.124Z,27.65
2023-04-13T15:58:50.045Z,27.48
2023-04-13T16:01:16.722Z,26.70
2023-04-13T16:03:43.787Z,26.52
2023-04-13T16:06:10.939Z,26.99
2023-04-13T16:08:37.898Z,26.23
2023-04-13T16:11:04.909Z,26.11
2023-04-13T16:13:47.060Z,26.24
2023-04-13T16:16:15.907Z,26.76
2023-04-13T16:18:42.430Z,27.69
2023-04-13T16:21:10.935Z,27.45
2023-04-13T16:23:37.775Z,27.62
2023-04-13T16:26:05.067Z,28.45
2023-04-13T16:28:31.706Z,29.18
2023-04-13T16:30:59.149Z,28.51
2023-04-13T16:33:26.135Z,29.01
2023-04-13T16:35:52.709Z,29.79
2023-04-13T16:38:19.279Z,30.08
2023-04-13T16:40:45.878Z,29.83
2023-04-13T16:43:12.895Z,29.56
2023-04-13T16:45:39.716Z,29.60
2023-04-13T16:48:06.570Z,28.87
2023-04-13T16:50:33.319Z,29.23
2023-04-13T16:53:00.091Z,29.59
2023-04-13T16:55:28.610Z,30.14
2023-04-13T16:57:56.258Z,30.57
2023-04-13T17:00:23.338Z,30.64
2023-04-13T17:02:50.152Z,30.20
2023-04-13T17:05:16.969Z,30.22
2023-04-13T17:07:44.715Z,30.53
2023-04-13T17:10:12.906Z,30.65
2023-04-13T17:12:40.571Z,30.63
2023-04-13T17:15:08.001Z,31.84
2023-04-13T17:17:34.778Z,31.73
2023-04-13T17:20:01.879Z,31.85
2023-04-13T17:22:28.668Z,32.37
2023-04-13T17:24:55.678Z,33.00
2023-04-13T17:27:22.380Z,33.14
2023-04-13T17:29:50.049Z,33.30
2023-04-13T17:32:16.791Z,33.38
2023-04-13T17:34:44.748Z,33.68
2023-04-13T17:37:11.893Z,34.33
2023-04-13T17:39:42.209Z,35.09
2023-04-13T17:42:09.552Z,37.47
2023-04-13T17:44:36.545Z,38.69
2023-04-13T17:47:04.817Z,41.90
2023-04-13T17:49:31.374Z,43.19
2023-04-13T17:51:59.921Z,44.44
2023-04-13T17:54:27.506Z,45.60
2023-04-13T17:56:54.798Z,45.67
2023-04-13T17:59:22.138Z,45.71
2023-04-13T18:01:51.594Z,46.39
2023-04-13T18:04:19.234Z,46.28
2023-04-13T18:06:45.980Z,46.53
2023-04-13T18:09:15.921Z,47.16
2023-04-13T18:11:42.597Z,47.77
2023-04-13T18:14:12.453Z,48.26
2023-04-13T18:16:39.331Z,48.50
2023-04-13T18:19:06.266Z,49.04
2023-04-13T18:21:33.303Z,49.33
2023-04-13T18:24:03.693Z,49.69
2023-04-13T18:26:30.589Z,51.55
2023-04-13T18:28:57.180Z,51.39
2023-04-13T18:31:24.023Z,51.12
2023-04-13T18:33:50.665Z,50.87
2023-04-13T18:36:18.448Z,51.45
2023-04-13T18:38:46.025Z,51.63
2023-04-13T18:41:13.017Z,51.90
2023-04-13T18:43:39.949Z,52.37
2023-04-13T18:46:07.976Z,52.67
2023-04-13T18:48:35.308Z,53.20
2023-04-13T18:51:04.010Z,52.91
2023-04-13T18:53:31.039Z,53.18
2023-04-13T18:55:58.401Z,53.45
2023-04-13T18:58:25.541Z,53.78
2023-04-13T19:00:52.119Z,53.87
2023-04-13T19:03:18.938Z,54.10
2023-04-13T19:05:46.134Z,54.36
2023-04-13T19:08:13.505Z,54.57
2023-04-13T19:10:42.557Z,55.11
2023-04-13T19:13:09.500Z,55.36
2023-04-13T19:15:36.441Z,56.10
2023-04-13T19:18:04.777Z,56.05
2023-04-13T19:20:31.593Z,56.74
2023-04-13T19:22:58.402Z,56.26
2023-04-13T19:25:25.061Z,57.01
2023-04-13T19:27:51.656Z,56.91
2023-04-13T19:30:21.450Z,57.12
2023-04-13T19:32:49.223Z,56.84
2023-04-13T19:35:16.440Z,57.28
2023-04-13T19:37:43.222Z,57.43
2023-04-13T19:40:10.273Z,57.62
2023-04-13T19:42:37.118Z,57.49
2023-04-13T19:45:04.599Z,57.59
2023-04-13T19:47:31.637Z,57.38
2023-04-13T19:49:58.182Z,58.41
2023-04-13T19:52:25.300Z,58.40
2023-04-13T19:54:52.094Z,58.75
2023-04-13T19:57:18.847Z,59.02
2023-04-13T19:59:45.840Z,59.14
2023-04-13T20:02:12.576Z,59.90
2023-04-13T20:04:40.102Z,60.49
2023-04-13T20:07:07.135Z,60.48
2023-04-13T20:09:33.911Z,60.89
2023-04-13T20:12:00.881Z,61.13
2023-04-13T20:14:27.438Z,61.26
2023-04-13T20:16:54.082Z,61.99
2023-04-13T20:19:21.215Z,63.04
2023-04-13T20:21:47.886Z,62.86
2023-04-13T20:24:14.608Z,64.09
2023-04-13T20:26:42.129Z,64.64
2023-04-13T20:29:08.675Z,64.78
2023-04-13T20:31:35.861Z,65.59
2023-04-13T20:34:04.412Z,65.96
2023-04-13T20:36:31.317Z,66.59
2023-04-13T20:38:59.450Z,66.92
2023-04-13T20:41:27.155Z,67.27
2023-04-13T20:43:53.660Z,67.72
2023-04-13T20:46:21.741Z,67.66
2023-04-13T20:48:51.540Z,68.30
2023-04-13T20:51:19.280Z,68.41
2023-04-13T20:53:46.004Z,68.67
2023-04-13T20:56:12.881Z,68.90
2023-04-13T20:58:40.785Z,69.21
2023-04-13T21:01:07.644Z,69.43
2023-04-13T21:03:34.931Z,69.42
2023-04-13T21:06:01.552Z,69.30
2023-04-13T21:08:28.210Z,70.11
2023-04-13T21:10:55.071Z,70.61
2023-04-13T21:13:22.149Z,70.58
2023-04-13T21:15:48.662Z,71.03
2023-04-13T21:18:15.394Z,71.01
2023-04-13T21:20:43.391Z,71.36
2023-04-13T21:23:10.308Z,71.75
2023-04-13T21:25:37.334Z,71.94
2023-04-13T21:28:04.840Z,72.47
2023-04-13T21:30:31.394Z,72.55
2023-04-13T21:32:57.990Z,73.15
2023-04-13T21:35:24.537Z,73.62
2023-04-13T21:37:51.178Z,73.65
2023-04-13T21:40:18.373Z,73.66
2023-04-13T21:42:45.060Z,74.32
2023-04-13T21:45:11.757Z,74.38
2023-04-13T21:47:38.474Z,74.79
2023-04-13T21:50:06.198Z,74.79
2023-04-13T21:52:33.013Z,75.18
2023-04-13T21:54:59.917Z,75.23
2023-04-13T21:57:26.891Z,75.58
2023-04-13T21:59:54.794Z,75.48
2023-04-13T22:02:21.476Z,75.64
2023-04-13T22:04:48.084Z,75.84
2023-04-13T22:07:14.816Z,75.57
2023-04-13T22:09:41.685Z,76.13
2023-04-13T22:12:10.739Z,76.48
2023-04-13T22:14:37.257Z,76.64
2023-04-13T22:17:04.288Z,76.52
2023-04-13T22:19:31.352Z,76.60
2023-04-13T22:21:57.885Z,76.42
2023-04-13T22:24:24.433Z,76.92
2023-04-13T22:26:51.696Z,76.65
2023-04-13T22:29:18.212Z,76.83
2023-04-13T22:31:44.867Z,76.82
2023-04-13T22:34:11.461Z,76.54
2023-04-13T22:36:38.000Z,77.20
2023-04-13T22:39:04.512Z,76.78
2023-04-13T22:41:31.018Z,77.10
2023-04-13T22:43:57.536Z,77.04
2023-04-13T22:46:24.196Z,77.13
2023-04-13T22:48:51.309Z,77.12
2023-04-13T22:51:17.833Z,77.30
2023-04-13T22:53:44.313Z,77.16
2023-04-13T22:56:10.875Z,77.42
2023-04-13T22:58:37.434Z,77.74
2023-04-13T23:01:04.713Z,77.57
2023-04-13T23:03:31.488Z,78.03
2023-04-13T23:05:58.152Z,78.13
2023-04-13T23:08:24.624Z,78.15
2023-04-13T23:10:51.202Z,77.80
2023-04-13T23:13:17.706Z,78.35
2023-04-13T23:15:44.289Z,78.65
2023-04-13T23:18:11.065Z,78.86
2023-04-13T23:20:37.647Z,79.06
2023-04-13T23:23:04.348Z,79.22
2023-04-13T23:25:30.917Z,79.29
2023-04-13T23:27:57.468Z,79.30
2023-04-13T23:30:24.000Z,79.33
2023-04-13T23:32:51.019Z,79.07
2023-04-13T23:35:17.648Z,79.22
2023-04-13T23:37:45.354Z,79.37
2023-04-13T23:40:12.281Z,79.20
2023-04-13T23:42:38.857Z,79.28
2023-04-13T23:45:05.961Z,79.37
2023-04-13T23:47:32.493Z,79.39
2023-04-13T23:49:59.170Z,79.42
2023-04-13T23:52:25.657Z,79.20
2023-04-13T23:54:52.119Z,79.29
2023-04-13T23:57:18.596Z,79.47
2023-04-13T23:59:45.105Z,79.69
